Time;durP1;ratioP1;P1;durP2;ratioP2;P2;SDS_P1;SDS_P2;PMS_P1;PMS_P2;Temp;Humidity;BMP_temperature;BMP_pressure;BME280_temperature;BME280_humidity;BME280_pressure;Samples;Min_cycle;Max_cycle;Signal;HPM_P1;HPM_P2
2024/01/17 00:00:20;;;;;;;98.90;40.67;;;;;;;-8.53;80.39;99659.90;1679838;85;25563;-45
2024/01/17 00:02:51;;;;;;;96.17;40.55;;;;;;;-8.50;80.64;99659.98;1679945;84;26144;-46
2024/01/17 00:05:18;;;;;;;96.08;40.45;;;;;;;-8.46;80.55;99660.71;1679789;84;25627;-45
2024/01/17 00:07:44;;;;;;;109.22;42.75;;;;;;;-8.40;80.71;99656.95;1679876;84;25454;-47
2024/01/17 00:10:10;;;;;;;98.20;41.68;;;;;;;-8.35;80.67;99651.40;1679765;85;25669;-45
2024/01/17 00:12:38;;;;;;;104.75;43.33;;;;;;;-8.34;80.69;99649.09;1679816;85;25647;-42
2024/01/17 00:15:12;;;;;;;97.72;39.92;;;;;;;-8.29;80.85;99653.23;1679952;85;27998;-45
2024/01/17 00:17:40;;;;;;;97.27;40.83;;;;;;;-8.27;80.94;99643.34;1679706;85;25420;-45
2024/01/17 00:20:14;;;;;;;96.08;41.40;;;;;;;-8.20;81.06;99643.85;1679800;84;25591;-45
2024/01/17 00:22:41;;;;;;;92.70;41.68;;;;;;;-8.14;81.35;99645.65;1679891;84;26650;-46
2024/01/17 00:25:10;;;;;;;103.50;42.48;;;;;;;-8.10;81.26;99643.73;1679918;85;25175;-45
2024/01/17 00:27:40;;;;;;;86.55;38.05;;;;;;;-8.03;81.32;99639.00;1679810;85;27363;-45
2024/01/17 00:30:15;;;;;;;90.28;38.67;;;;;;;-7.96;81.40;99639.80;1679864;85;25761;-44
2024/01/17 00:32:42;;;;;;;96.97;39.18;;;;;;;-7.94;81.37;99636.45;1679912;85;25458;-44
2024/01/17 00:35:10;;;;;;;94.72;39.35;;;;;;;-7.87;81.47;99629.38;1679179;85;25669;-47
2024/01/17 00:37:37;;;;;;;96.28;39.73;;;;;;;-7.84;81.33;99630.28;1696494;83;26058;-45
2024/01/17 00:40:10;;;;;;;96.90;38.83;;;;;;;-7.81;81.46;99634.34;1709064;83;28010;-45
2024/01/17 00:42:37;;;;;;;83.82;36.08;;;;;;;-7.76;81.59;99630.08;1709025;83;25832;-45
2024/01/17 00:45:10;;;;;;;88.47;35.08;;;;;;;-7.76;81.64;99628.77;1708984;83;25644;-44
2024/01/17 00:47:36;;;;;;;89.00;35.33;;;;;;;-7.73;81.42;99630.98;1708610;83;25806;-44
2024/01/17 00:50:14;;;;;;;81.75;35.10;;;;;;;-7.72;81.65;99622.59;1708956;83;25665;-45
2024/01/17 00:52:40;;;;;;;81.00;36.03;;;;;;;-7.68;81.96;99624.30;1709826;83;27439;-44
2024/01/17 00:55:10;;;;;;;85.57;36.10;;;;;;;-7.67;82.11;99623.30;1709739;83;25603;-44
2024/01/17 00:57:38;;;;;;;79.65;34.08;;;;;;;-7.64;81.99;99623.69;1709849;83;25472;-44
2024/01/17 01:00:16;;;;;;;80.87;35.63;;;;;;;-7.63;82.40;99630.53;1709689;83;25687;-44
2024/01/17 01:02:43;;;;;;;78.42;33.92;;;;;;;-7.60;82.39;99637.21;1709787;83;25661;-45
2024/01/17 01:05:14;;;;;;;87.75;35.13;;;;;;;-7.57;82.39;99631.55;1709868;83;27340;-45
2024/01/17 01:07:42;;;;;;;77.15;35.00;;;;;;;-7.53;82.62;99638.80;1709831;83;25643;-43
2024/01/17 01:10:11;;;;;;;76.25;33.35;;;;;;;-7.48;82.84;99643.44;1709980;83;25648;-45
2024/01/17 01:12:39;;;;;;;77.12;34.08;;;;;;;-7.44;82.90;99639.41;1709939;83;26154;-49
2024/01/17 01:15:10;;;;;;;78.97;33.18;;;;;;;-7.40;82.94;99642.42;1709822;83;25518;-46
2024/01/17 01:17:36;;;;;;;82.22;34.67;;;;;;;-7.37;82.99;99638.87;1709965;83;27331;-44
2024/01/17 01:20:07;;;;;;;75.52;33.05;;;;;;;-7.31;82.97;99650.36;1709815;83;25400;-44
2024/01/17 01:22:35;;;;;;;79.12;34.73;;;;;;;-7.27;82.82;99642.86;1709817;83;25611;-45
2024/01/17 01:25:01;;;;;;;70.57;33.05;;;;;;;-7.23;83.02;99640.94;1709779;83;25604;-44
2024/01/17 01:27:27;;;;;;;73.30;31.57;;;;;;;-7.18;83.06;99635.06;1709834;83;25418;-47
2024/01/17 01:29:53;;;;;;;72.97;32.73;;;;;;;-7.15;82.91;99620.99;1709815;82;27990;-45
2024/01/17 01:32:19;;;;;;;69.72;31.37;;;;;;;-7.10;82.93;99621.66;1709737;83;25479;-48
2024/01/17 01:34:45;;;;;;;76.67;31.97;;;;;;;-7.06;83.07;99617.61;1709739;83;25486;-45
2024/01/17 01:37:12;;;;;;;75.55;30.70;;;;;;;-7.05;83.08;99614.47;1709617;83;26188;-44
2024/01/17 01:39:38;;;;;;;66.22;30.43;;;;;;;-7.05;83.08;99604.75;1709913;83;25452;-46
2024/01/17 01:42:04;;;;;;;67.00;30.52;;;;;;;-7.06;83.42;99601.84;1709892;83;28144;-44
2024/01/17 01:44:30;;;;;;;68.07;29.25;;;;;;;-7.06;83.46;99594.47;1709825;83;25633;-45
2024/01/17 01:47:00;;;;;;;69.25;30.12;;;;;;;-7.08;84.29;99589.91;1709885;83;25629;-45
2024/01/17 01:49:28;;;;;;;71.40;29.75;;;;;;;-7.12;84.18;99580.32;1709913;83;26049;-48
2024/01/17 01:51:57;;;;;;;70.47;29.52;;;;;;;-7.11;84.20;99572.75;1709932;83;25661;-44
2024/01/17 01:54:27;;;;;;;69.27;29.07;;;;;;;-7.08;84.52;99580.70;1709948;83;27328;-43
2024/01/17 01:56:59;;;;;;;73.62;31.02;;;;;;;-7.05;84.39;99578.98;1709823;83;25591;-43
2024/01/17 01:59:28;;;;;;;73.02;31.37;;;;;;;-7.05;84.71;99574.52;1709889;83;25649;-45
2024/01/17 02:01:58;;;;;;;77.67;29.48;;;;;;;-7.03;85.03;99577.77;1709885;83;25694;-47
2024/01/17 02:04:36;;;;;;;71.80;30.08;;;;;;;-7.01;84.91;99574.41;1709915;83;25542;-43
2024/01/17 02:07:08;;;;;;;72.22;28.52;;;;;;;-6.98;85.26;99570.05;1709906;83;27276;-44
2024/01/17 02:09:39;;;;;;;61.90;28.23;;;;;;;-6.97;85.57;99572.16;1709773;83;25637;-44
2024/01/17 02:12:12;;;;;;;66.17;28.77;;;;;;;-6.96;84.96;99564.06;1709981;83;25578;-45
2024/01/17 02:14:41;;;;;;;66.15;30.57;;;;;;;-6.92;85.11;99572.33;1709929;83;26249;-44
2024/01/17 02:17:08;;;;;;;64.67;28.87;;;;;;;-6.90;85.31;99577.38;1709092;83;25565;-45
2024/01/17 02:19:41;;;;;;;70.85;29.65;;;;;;;-6.89;85.18;99570.59;1709901;83;27312;-44
2024/01/17 02:22:08;;;;;;;71.95;30.50;;;;;;;-6.87;85.24;99566.44;1709884;83;25529;-44
2024/01/17 02:24:34;;;;;;;69.07;31.12;;;;;;;-6.85;85.32;99569.14;1709883;83;25641;-44
2024/01/17 02:27:01;;;;;;;71.37;29.70;;;;;;;-6.84;85.46;99579.97;1709896;83;25624;-45
2024/01/17 02:29:29;;;;;;;70.00;31.73;;;;;;;-6.83;85.49;99576.30;1709944;83;25586;-43
2024/01/17 02:31:59;;;;;;;70.92;30.85;;;;;;;-6.84;85.86;99577.34;1709831;83;28048;-46
2024/01/17 02:34:25;;;;;;;86.30;32.93;;;;;;;-6.82;85.62;99579.24;1709706;83;25518;-45
2024/01/17 02:36:51;;;;;;;71.70;30.77;;;;;;;-6.80;85.74;99575.89;1709939;83;25217;-45
2024/01/17 02:39:20;;;;;;;69.25;32.08;;;;;;;-6.77;85.81;99575.47;1679125;83;25635;-44
2024/01/17 02:41:48;;;;;;;73.15;32.48;;;;;;;-6.74;85.88;99568.16;1677896;85;25630;-45
2024/01/17 02:44:15;;;;;;;73.87;31.17;;;;;;;-6.72;86.04;99564.31;1677869;84;27430;-45
2024/01/17 02:46:43;;;;;;;74.03;32.08;;;;;;;-6.68;85.89;99559.43;1677912;84;25421;-47
2024/01/17 02:49:14;;;;;;;66.90;30.68;;;;;;;-6.65;86.02;99559.80;1678048;84;25678;-47
2024/01/17 02:51:37;;;;;;;70.97;30.92;;;;;;;-6.61;86.13;99560.18;1677778;85;25639;-44
2024/01/17 02:54:06;;;;;;;76.33;30.80;;;;;;;-6.60;86.10;99566.55;1677922;84;25552;-44
2024/01/17 02:56:32;;;;;;;;;;;;;;;-6.58;86.19;99569.77;1680406;84;27953;-45
2024/01/17 02:59:06;;;;;;;68.97;29.02;;;;;;;-6.54;86.33;99564.88;1677890;84;25405;-45
2024/01/17 03:01:37;;;;;;;68.65;30.60;;;;;;;-6.52;86.60;99570.75;1678037;85;25424;-45
2024/01/17 03:04:11;;;;;;;63.65;30.05;;;;;;;-6.51;86.31;99571.03;1677940;85;25614;-44
2024/01/17 03:06:37;;;;;;;74.27;30.92;;;;;;;-6.48;86.43;99571.12;1677939;85;25552;-46
2024/01/17 03:09:04;;;;;;;70.28;29.63;;;;;;;-6.43;86.74;99569.45;1677878;84;27400;-45
2024/01/17 03:11:31;;;;;;;62.83;29.52;;;;;;;-6.38;86.85;99563.55;1677834;85;25722;-46
2024/01/17 03:13:57;;;;;;;62.88;30.37;;;;;;;-6.36;87.45;99557.55;1677937;85;25626;-45
2024/01/17 03:16:23;;;;;;;62.93;29.30;;;;;;;-6.34;86.90;99556.03;1677947;82;25662;-45
2024/01/17 03:18:49;;;;;;;64.50;27.82;;;;;;;-6.33;86.67;99549.23;1677939;84;25670;-46
2024/01/17 03:21:16;;;;;;;63.68;28.70;;;;;;;-6.34;86.64;99548.93;1677844;84;27324;-44
2024/01/17 03:23:42;;;;;;;60.28;28.70;;;;;;;-6.33;86.63;99553.18;1677920;84;25673;-44
2024/01/17 03:26:10;;;;;;;66.28;28.87;;;;;;;-6.30;86.78;99557.19;1677929;84;25410;-46
2024/01/17 03:28:36;;;;;;;63.35;28.20;;;;;;;-6.30;86.60;99558.52;1677807;85;25591;-45
2024/01/17 03:31:04;;;;;;;60.65;27.02;;;;;;;-6.28;86.82;99555.97;1677920;85;25438;-46
2024/01/17 03:33:30;;;;;;;61.58;26.73;;;;;;;-6.22;87.35;99557.72;1677989;85;27367;-47
2024/01/17 03:35:56;;;;;;;66.72;28.57;;;;;;;-6.21;87.48;99558.03;1677763;84;25639;-46
2024/01/17 03:38:22;;;;;;;58.85;27.60;;;;;;;-6.17;87.42;99549.18;1678602;83;25534;-46
2024/01/17 03:40:49;;;;;;;65.00;27.17;;;;;;;-6.16;87.42;99548.17;1679670;85;25653;-46
2024/01/17 03:43:15;;;;;;;61.80;28.47;;;;;;;-6.12;87.79;99548.02;1679874;85;25611;-44
2024/01/17 03:45:45;;;;;;;63.42;26.52;;;;;;;-6.07;87.88;99547.38;1679840;85;27959;-49
2024/01/17 03:48:11;;;;;;;58.40;25.70;;;;;;;-6.05;88.20;99539.53;1679845;85;25478;-46
2024/01/17 03:50:37;;;;;;;59.25;27.17;;;;;;;-5.99;88.17;99549.73;1679932;85;25546;-49
2024/01/17 03:53:04;;;;;;;62.58;26.42;;;;;;;-5.96;88.41;99544.52;1679910;85;25691;-49
2024/01/17 03:55:30;;;;;;;60.03;26.37;;;;;;;-5.94;88.52;99547.70;1679953;85;25453;-49
2024/01/17 03:57:56;;;;;;;62.23;27.60;;;;;;;-5.92;88.51;99538.58;1679926;85;27496;-46
2024/01/17 04:00:22;;;;;;;63.90;27.22;;;;;;;-5.89;88.51;99544.73;1679816;85;25743;-46
2024/01/17 04:02:48;;;;;;;58.17;26.20;;;;;;;-5.86;88.52;99545.58;1679819;85;25694;-46
2024/01/17 04:05:21;;;;;;;59.08;26.68;;;;;;;-5.82;88.73;99548.09;1679886;84;27901;-45
2024/01/17 04:07:47;;;;;;;52.40;25.17;;;;;;;-5.79;88.83;99552.62;1679880;85;25624;-45
2024/01/17 04:10:13;;;;;;;53.60;26.17;;;;;;;-5.77;88.72;99547.44;1679920;84;27431;-45
2024/01/17 04:12:39;;;;;;;58.40;25.43;;;;;;;-5.74;88.86;99546.97;1679781;85;25632;-49
2024/01/17 04:15:12;;;;;;;57.43;26.82;;;;;;;-5.71;89.22;99543.91;1679964;85;25401;-46
2024/01/17 04:17:40;;;;;;;56.60;25.43;;;;;;;-5.67;89.24;99549.53;1679879;85;25678;-45
2024/01/17 04:20:17;;;;;;;54.08;25.37;;;;;;;-5.65;89.15;99547.51;1679899;85;25397;-46
2024/01/17 04:22:43;;;;;;;57.20;27.58;;;;;;;-5.65;89.22;99539.61;1679881;85;28079;-44
2024/01/17 04:25:09;;;;;;;61.15;26.97;;;;;;;-5.62;89.39;99541.78;1679769;85;25428;-44
2024/01/17 04:27:37;;;;;;;53.95;26.15;;;;;;;-5.60;89.28;99543.70;1679735;85;25518;-43
2024/01/17 04:30:15;;;;;;;54.48;25.77;;;;;;;-5.57;89.36;99536.64;1679774;85;25715;-44
2024/01/17 04:32:41;;;;;;;56.77;25.72;;;;;;;-5.53;89.33;99535.72;1679852;85;25453;-43
2024/01/17 04:35:11;;;;;;;57.33;25.88;;;;;;;-5.50;89.42;99540.52;1679851;85;28036;-43
2024/01/17 04:37:39;;;;;;;56.90;26.40;;;;;;;-5.49;89.47;99530.28;1679714;85;25543;-44
2024/01/17 04:40:12;;;;;;;58.23;27.13;;;;;;;-5.47;89.30;99528.22;1709305;83;25431;-43
2024/01/17 04:42:40;;;;;;;55.12;26.00;;;;;;;-5.49;89.28;99531.08;1709758;83;25640;-44
2024/01/17 04:45:13;;;;;;;58.70;26.05;;;;;;;-5.48;89.15;99540.61;1709765;83;25614;-45
2024/01/17 04:47:39;;;;;;;63.20;27.52;;;;;;;-5.48;89.23;99543.23;1709720;83;27344;-44
2024/01/17 04:50:12;;;;;;;56.83;25.90;;;;;;;-5.48;89.31;99539.29;1709717;83;25650;-44
2024/01/17 04:52:40;;;;;;;56.02;26.45;;;;;;;-5.48;89.11;99541.92;1709806;83;25405;-44
2024/01/17 04:55:13;;;;;;;59.93;26.17;;;;;;;-5.48;89.30;99531.91;1709726;83;25624;-43
2024/01/17 04:57:35;;;;;;;56.92;26.52;;;;;;;-5.49;89.22;99532.39;1705793;83;25591;-44
2024/01/17 05:00:14;;;;;;;54.10;25.48;;;;;;;-5.50;89.18;99528.66;1709728;83;27938;-44
2024/01/17 05:02:41;;;;;;;63.68;27.37;;;;;;;-5.48;89.27;99537.97;1709896;83;25439;-45
2024/01/17 05:05:17;;;;;;;60.10;27.27;;;;;;;-5.49;89.19;99537.67;1709898;83;25628;-45
2024/01/17 05:07:45;;;;;;;61.02;25.72;;;;;;;-5.49;89.21;99538.19;1709735;83;25672;-43
2024/01/17 05:10:13;;;;;;;58.00;26.75;;;;;;;-5.47;89.12;99544.83;1709870;83;25569;-44
2024/01/17 05:12:39;;;;;;;58.83;27.07;;;;;;;-5.45;89.06;99539.34;1709837;83;27255;-45
2024/01/17 05:15:10;;;;;;;53.25;24.72;;;;;;;-5.42;89.03;99537.59;1709920;83;25550;-47
2024/01/17 05:17:38;;;;;;;65.05;27.07;;;;;;;-5.40;89.02;99534.73;1709933;83;25577;-45
2024/01/17 05:20:16;;;;;;;60.55;28.02;;;;;;;-5.41;88.73;99539.70;1709898;83;25667;-45
2024/01/17 05:22:41;;;;;;;55.10;26.17;;;;;;;-5.42;88.87;99540.74;1709508;83;25631;-45
2024/01/17 05:25:11;;;;;;;60.17;27.60;;;;;;;-5.44;88.67;99544.39;1709919;83;27413;-43
2024/01/17 05:27:40;;;;;;;57.48;26.02;;;;;;;-5.44;88.68;99541.77;1709938;83;25435;-45
2024/01/17 05:30:14;;;;;;;58.40;26.20;;;;;;;-5.44;88.63;99546.23;1709899;83;25440;-44
2024/01/17 05:32:44;;;;;;;59.73;27.42;;;;;;;-5.45;88.77;99534.90;1710042;83;25629;-45
2024/01/17 05:35:11;;;;;;;59.27;27.98;;;;;;;-5.45;88.63;99532.75;1709975;83;25530;-44
2024/01/17 05:37:45;;;;;;;57.90;27.37;;;;;;;-5.45;88.76;99532.27;1709995;83;27902;-44
2024/01/17 05:40:17;;;;;;;59.27;26.60;;;;;;;-5.48;88.73;99535.33;1709499;83;25961;-45
2024/01/17 05:42:46;;;;;;;60.67;28.15;;;;;;;-5.51;88.77;99538.41;1709929;83;25449;-45
2024/01/17 05:45:14;;;;;;;65.08;27.15;;;;;;;-5.51;88.84;99535.77;1709884;83;26449;-44
2024/01/17 05:47:40;;;;;;;53.83;26.17;;;;;;;-5.50;88.93;99540.52;1709981;83;25620;-45
2024/01/17 05:50:16;;;;;;;65.15;27.15;;;;;;;-5.50;88.95;99536.08;1709906;83;27326;-45
2024/01/17 05:52:46;;;;;;;58.05;26.50;;;;;;;-5.51;88.96;99534.45;1709838;83;25661;-45
2024/01/17 05:55:15;;;;;;;59.65;26.93;;;;;;;-5.52;88.95;99538.10;1709941;83;25425;-46
2024/01/17 05:57:44;;;;;;;62.10;26.80;;;;;;;-5.52;89.01;99537.31;1709820;83;25720;-44
2024/01/17 06:00:18;;;;;;;65.90;27.73;;;;;;;-5.51;89.12;99539.72;1709985;83;25538;-45
2024/01/17 06:02:46;;;;;;;59.63;27.35;;;;;;;-5.51;89.11;99533.14;1709835;83;27332;-45
2024/01/17 06:05:15;;;;;;;59.60;26.33;;;;;;;-5.50;89.05;99528.17;1709799;83;25649;-44
2024/01/17 06:07:42;;;;;;;57.85;26.57;;;;;;;-5.50;89.01;99526.85;1710023;83;25475;-45
2024/01/17 06:10:13;;;;;;;58.80;27.73;;;;;;;-5.47;89.04;99524.27;1709921;83;25631;-44
2024/01/17 06:12:45;;;;;;;57.90;28.10;;;;;;;-5.48;88.84;99524.00;1710035;83;25566;-44
2024/01/17 06:15:12;;;;;;;61.42;26.60;;;;;;;-5.50;88.80;99511.04;1709931;83;28028;-45
2024/01/17 06:17:41;;;;;;;58.58;26.02;;;;;;;-5.49;88.74;99526.33;1709512;83;25684;-46
2024/01/17 06:20:12;;;;;;;63.28;26.60;;;;;;;-5.50;88.37;99528.66;1709236;83;25830;-47
2024/01/17 06:22:40;;;;;;;57.95;27.55;;;;;;;-5.52;88.31;99532.03;1709583;83;25712;-45
2024/01/17 06:25:09;;;;;;;55.98;26.30;;;;;;;-5.54;88.28;99531.46;1709985;83;25221;-45
2024/01/17 06:27:35;;;;;;;58.25;27.42;;;;;;;-5.57;88.16;99541.92;1710042;83;27392;-46
2024/01/17 06:30:08;;;;;;;62.85;28.15;;;;;;;-5.58;88.32;99540.33;1709768;83;25471;-44
2024/01/17 06:32:34;;;;;;;55.48;26.02;;;;;;;-5.64;88.26;99533.30;1709947;83;25451;-44
2024/01/17 06:35:00;;;;;;;64.17;27.82;;;;;;;-5.67;88.17;99535.87;1709753;83;25686;-44
2024/01/17 06:37:26;;;;;;;61.75;27.42;;;;;;;-5.71;88.25;99537.31;1709887;83;25558;-43
2024/01/17 06:39:54;;;;;;;58.28;25.35;;;;;;;-5.75;88.18;99529.58;1709648;83;27395;-44
2024/01/17 06:42:20;;;;;;;60.03;28.23;;;;;;;-5.81;88.03;99526.49;1709719;83;25584;-44
2024/01/17 06:44:46;;;;;;;58.83;27.48;;;;;;;-5.83;88.26;99524.08;1709870;83;25462;-44
2024/01/17 06:47:13;;;;;;;60.90;27.48;;;;;;;-5.88;88.20;99519.98;1709843;83;26317;-43
2024/01/17 06:49:41;;;;;;;59.13;25.50;;;;;;;-5.91;88.02;99522.25;1709874;83;25470;-44
2024/01/17 06:52:09;;;;;;;61.90;26.57;;;;;;;-5.94;87.85;99516.92;1709761;83;27365;-44
2024/01/17 06:54:36;;;;;;;62.85;28.42;;;;;;;-5.97;88.01;99513.44;1709603;83;25521;-44
2024/01/17 06:57:07;;;;;;;56.70;26.50;;;;;;;-5.99;88.06;99508.91;1709787;83;25589;-44
2024/01/17 06:59:35;;;;;;;60.48;26.77;;;;;;;-6.05;88.03;99507.94;1709886;83;25781;-44
2024/01/17 07:02:01;;;;;;;60.52;27.67;;;;;;;-6.08;88.06;99507.08;1709850;83;25369;-45
2024/01/17 07:04:29;;;;;;;60.15;27.30;;;;;;;-6.12;87.95;99510.36;1709850;83;27323;-43
2024/01/17 07:06:55;;;;;;;65.32;27.42;;;;;;;-6.14;88.02;99500.56;1709728;83;25623;-43
2024/01/17 07:09:24;;;;;;;60.50;26.62;;;;;;;-6.16;88.05;99498.64;1709832;83;25570;-43
2024/01/17 07:12:00;;;;;;;58.90;26.50;;;;;;;-6.18;88.04;99494.91;1709788;83;26312;-46
2024/01/17 07:14:26;;;;;;;53.85;24.30;;;;;;;-6.20;88.00;99495.16;1710022;83;25465;-44
2024/01/17 07:16:52;;;;;;;63.55;27.07;;;;;;;-6.22;88.27;99487.16;1709843;83;27337;-46
2024/01/17 07:19:19;;;;;;;57.38;25.05;;;;;;;-6.24;88.37;99495.28;1709755;83;25558;-44
2024/01/17 07:21:45;;;;;;;57.40;25.23;;;;;;;-6.23;88.38;99493.44;1709854;83;25542;-45
2024/01/17 07:24:13;;;;;;;56.42;26.50;;;;;;;-6.28;88.42;99479.64;1709832;83;25628;-45
2024/01/17 07:26:39;;;;;;;62.73;25.72;;;;;;;-6.22;88.50;99485.84;1709978;83;25614;-44
2024/01/17 07:29:05;;;;;;;61.00;27.85;;;;;;;-6.20;88.72;99477.22;1709753;82;27289;-44
2024/01/17 07:31:31;;;;;;;60.40;27.52;;;;;;;-6.18;88.64;99475.68;1709650;83;25469;-45
2024/01/17 07:34:00;;;;;;;61.13;26.35;;;;;;;-6.18;88.63;99469.89;1709895;83;25453;-44
2024/01/17 07:36:27;;;;;;;60.20;28.35;;;;;;;-6.18;88.52;99469.89;1709698;83;25655;-46
2024/01/17 07:38:53;;;;;;;57.45;26.33;;;;;;;-6.16;88.63;99466.55;1709881;83;25393;-43
2024/01/17 07:41:20;;;;;;;63.55;27.30;;;;;;;-6.14;88.67;99471.08;1709720;83;27270;-44
2024/01/17 07:43:47;;;;;;;58.40;23.95;;;;;;;-6.14;88.91;99461.88;1709643;83;25673;-48
2024/01/17 07:46:16;;;;;;;55.45;23.60;;;;;;;-6.11;88.92;99461.92;1709944;83;30037;-45
2024/01/17 07:48:44;;;;;;;49.90;22.22;;;;;;;-6.10;88.97;99445.91;1709777;83;25679;-45
2024/01/17 07:51:10;;;;;;;62.13;28.00;;;;;;;-6.07;89.08;99442.05;1709874;83;25797;-44
2024/01/17 07:53:36;;;;;;;56.68;25.92;;;;;;;-6.02;89.40;99443.51;1709823;83;27676;-44
2024/01/17 07:56:07;;;;;;;58.30;25.20;;;;;;;-5.98;89.22;99433.34;1709757;83;25708;-45
2024/01/17 07:58:33;;;;;;;64.55;27.90;;;;;;;-5.96;89.48;99428.64;1710087;83;25434;-44
2024/01/17 08:01:00;;;;;;;63.02;27.45;;;;;;;-5.88;89.77;99426.48;1709769;83;25645;-43
2024/01/17 08:03:26;;;;;;;65.32;28.02;;;;;;;-5.78;89.80;99430.43;1689758;83;25674;-44
2024/01/17 08:05:52;;;;;;;52.27;24.12;;;;;;;-5.62;90.40;99425.83;1709774;83;27405;-45
2024/01/17 08:08:20;;;;;;;60.43;26.50;;;;;;;-5.32;91.79;99421.06;1709708;83;25596;-46
2024/01/17 08:10:46;;;;;;;65.10;26.95;;;;;;;-4.91;92.68;99422.05;1709746;83;25358;-45
2024/01/17 08:13:12;;;;;;;64.58;26.85;;;;;;;-4.66;92.57;99420.52;1709774;83;25556;-47
2024/01/17 08:15:39;;;;;;;55.38;26.87;;;;;;;-4.22;93.69;99416.96;1709846;83;25684;-45
2024/01/17 08:18:08;;;;;;;61.58;25.55;;;;;;;-3.89;92.87;99414.16;1709747;83;27326;-47
2024/01/17 08:20:36;;;;;;;56.77;26.45;;;;;;;-3.64;90.60;99411.20;1709731;83;25719;-48
2024/01/17 08:23:06;;;;;;;54.18;24.30;;;;;;;-3.45;89.78;99411.80;1709837;83;25621;-46
2024/01/17 08:25:34;;;;;;;54.23;24.50;;;;;;;-3.18;89.35;99407.23;1709786;83;25930;-47
2024/01/17 08:28:00;;;;;;;47.45;22.50;;;;;;;-2.94;88.13;99403.89;1709846;82;25562;-47
2024/01/17 08:30:30;;;;;;;43.52;22.93;;;;;;;-2.74;87.55;99406.05;1709929;83;27430;-46
2024/01/17 08:32:56;;;;;;;47.15;22.67;;;;;;;-2.50;87.76;99399.23;1709749;83;25652;-44
2024/01/17 08:35:22;;;;;;;54.00;23.57;;;;;;;-2.28;86.33;99400.05;1709611;83;25640;-45
2024/01/17 08:37:48;;;;;;;54.23;24.25;;;;;;;-2.21;84.43;99405.67;1709656;83;25988;-45
2024/01/17 08:40:18;;;;;;;50.35;23.73;;;;;;;-2.03;86.05;99405.89;1709724;83;25959;-44
2024/01/17 08:42:48;;;;;;;45.55;23.07;;;;;;;-1.75;85.17;99401.70;1709767;83;27334;-45
2024/01/17 08:45:18;;;;;;;51.40;23.20;;;;;;;-1.46;84.87;99409.42;1708005;83;25749;-44
2024/01/17 08:47:44;;;;;;;51.53;24.12;;;;;;;-1.15;85.96;99406.50;1709856;83;25373;-45
2024/01/17 08:50:14;;;;;;;47.60;23.80;;;;;;;-0.86;83.83;99410.72;1709856;83;25629;-45
2024/01/17 08:52:42;;;;;;;45.85;22.93;;;;;;;-0.73;82.51;99411.61;1709973;83;25581;-49
2024/01/17 08:55:10;;;;;;;50.15;23.35;;;;;;;-0.47;82.70;99407.23;1709889;82;27341;-46
2024/01/17 08:57:40;;;;;;;46.02;24.65;;;;;;;-0.32;80.46;99406.52;1709948;83;25493;-48
2024/01/17 09:00:20;;;;;;;49.08;22.75;;;;;;;-0.23;79.88;99416.13;1710092;83;25551;-49
2024/01/17 09:02:46;;;;;;;42.60;22.13;;;;;;;-0.36;78.08;99401.44;1710017;83;26197;-49
2024/01/17 09:05:13;;;;;;;44.50;21.30;;;;;;;-0.25;79.42;99396.99;1710115;83;25503;-45
2024/01/17 09:07:43;;;;;;;46.80;21.90;;;;;;;0.11;81.09;99394.46;1709976;83;27573;-46
2024/01/17 09:10:13;;;;;;;48.60;22.27;;;;;;;0.43;79.05;99390.28;1709793;83;25566;-46
2024/01/17 09:12:40;;;;;;;46.37;22.95;;;;;;;0.87;80.19;99388.46;1707871;83;25393;-47
2024/01/17 09:15:12;;;;;;;47.50;22.65;;;;;;;1.15;79.65;99384.97;1709839;83;25636;-46
2024/01/17 09:17:39;;;;;;;42.60;21.73;;;;;;;1.38;78.21;99378.80;1709998;83;25657;-49
2024/01/17 09:20:14;;;;;;;48.75;22.45;;;;;;;1.69;77.81;99374.19;1709952;83;27334;-46
2024/01/17 09:22:45;;;;;;;48.10;22.15;;;;;;;1.95;77.34;99368.75;1709914;83;25596;-48
2024/01/17 09:25:13;;;;;;;41.20;22.85;;;;;;;2.42;78.69;99355.41;1709959;83;25704;-47
2024/01/17 09:27:39;;;;;;;47.45;23.00;;;;;;;2.79;75.97;99354.05;1710029;83;25685;-47
2024/01/17 09:30:12;;;;;;;47.90;23.75;;;;;;;2.92;76.22;99348.61;1709973;83;25480;-48
2024/01/17 09:32:47;;;;;;;45.10;23.20;;;;;;;3.28;75.87;99353.06;1710096;83;27348;-47
2024/01/17 09:35:12;;;;;;;45.70;23.90;;;;;;;3.34;71.60;99347.14;1708128;83;25460;-49
2024/01/17 09:37:38;;;;;;;44.90;22.40;;;;;;;3.34;71.18;99337.78;1709942;83;25394;-46
2024/01/17 09:40:14;;;;;;;47.43;23.22;;;;;;;3.34;71.19;99334.56;1703913;83;26327;-46
2024/01/17 09:42:41;;;;;;;41.28;22.45;;;;;;;3.57;72.15;99323.35;1680035;85;25663;-46
2024/01/17 09:45:14;;;;;;;46.33;23.80;;;;;;;3.56;69.36;99305.19;1679949;85;27327;-46
2024/01/17 09:47:43;;;;;;;43.20;23.12;;;;;;;3.66;69.30;99305.58;1679905;85;25461;-47
2024/01/17 09:50:10;;;;;;;48.35;24.07;;;;;;;3.95;70.46;99293.45;1660587;85;25636;-50
2024/01/17 09:52:42;;;;;;;46.08;24.82;;;;;;;4.41;71.62;99294.09;1679995;85;26207;-48
2024/01/17 09:55:19;;;;;;;46.92;25.05;;;;;;;4.98;72.33;99281.87;1679844;85;25538;-50
2024/01/17 09:57:58;;;;;;;51.48;26.55;;;;;;;5.47;70.26;99272.11;1679969;85;27533;-48
2024/01/17 10:00:30;;;;;;;58.23;30.55;;;;;;;5.96;70.38;99265.98;1660739;85;25658;-53
2024/01/17 10:03:00;;;;;;;57.50;28.52;;;;;;;6.35;68.63;99259.17;1679951;84;25647;-46
2024/01/17 10:05:34;;;;;;;53.40;30.00;;;;;;;6.72;67.09;99259.06;1679947;84;26970;-50
2024/01/17 10:08:00;;;;;;;52.80;28.83;;;;;;;6.92;66.17;99251.80;1680085;84;25413;-49
2024/01/17 10:10:27;;;;;;;58.33;31.40;;;;;;;7.33;66.25;99248.55;1679933;85;27349;-49
2024/01/17 10:12:54;;;;;;;63.02;31.70;;;;;;;7.43;61.79;99237.50;1679873;85;25564;-47
2024/01/17 10:15:35;;;;;;;59.48;32.10;;;;;;;7.30;62.17;99229.00;1679935;85;25661;-49
2024/01/17 10:18:02;;;;;;;58.20;31.70;;;;;;;7.58;62.35;99226.85;1679879;85;25686;-50
2024/01/17 10:20:29;;;;;;;56.77;30.40;;;;;;;7.84;61.55;99224.17;1679979;84;25907;-48
2024/01/17 10:22:57;;;;;;;50.95;29.48;;;;;;;8.04;60.78;99212.54;1679825;85;27309;-49
2024/01/17 10:25:25;;;;;;;52.25;29.85;;;;;;;8.06;59.52;99199.54;1679896;85;25641;-48
2024/01/17 10:27:52;;;;;;;53.33;30.37;;;;;;;8.07;59.00;99199.78;1679940;85;25616;-48
2024/01/17 10:30:20;;;;;;;58.60;30.40;;;;;;;7.83;55.68;99182.75;1679920;84;25553;-47
2024/01/17 10:32:50;;;;;;;52.53;30.90;;;;;;;7.89;57.63;99176.11;1679940;85;25415;-48
2024/01/17 10:35:23;;;;;;;50.90;29.32;;;;;;;7.97;56.62;99169.14;1679920;85;27337;-49
2024/01/17 10:37:55;;;;;;;49.48;28.80;;;;;;;8.09;58.13;99171.16;1680046;85;25394;-48
2024/01/17 10:40:22;;;;;;;50.65;29.82;;;;;;;8.21;52.89;99158.64;1684845;83;25480;-48
2024/01/17 10:43:09;;;;;;;50.95;29.37;;;;;;;7.80;53.98;99165.34;1709900;83;25707;-47
2024/01/17 10:45:39;;;;;;;49.50;28.67;;;;;;;7.45;53.80;99147.84;1709805;83;25545;-50
2024/01/17 10:48:09;;;;;;;49.33;29.57;;;;;;;7.18;54.58;99142.19;1709897;83;27351;-46
2024/01/17 10:50:35;;;;;;;46.65;28.80;;;;;;;7.32;55.62;99132.66;1709886;83;25640;-46
2024/01/17 10:53:08;;;;;;;49.00;28.92;;;;;;;7.17;55.01;99128.52;1709909;83;25637;-47
2024/01/17 10:55:38;;;;;;;52.75;28.92;;;;;;;6.94;53.89;99122.45;1709895;83;25703;-47
2024/01/17 10:58:11;;;;;;;50.73;28.92;;;;;;;6.24;52.03;99118.73;1709731;83;25640;-46
2024/01/17 11:00:45;;;;;;;49.65;29.07;;;;;;;5.60;52.70;99117.84;1709873;83;27419;-46
2024/01/17 11:03:17;;;;;;;55.60;31.10;;;;;;;5.13;53.40;99113.81;1707412;83;25682;-47
2024/01/17 11:05:50;;;;;;;54.98;30.70;;;;;;;4.86;54.09;99113.54;1707150;83;25483;-48
2024/01/17 11:08:20;;;;;;;52.95;29.32;;;;;;;4.88;53.86;99103.86;1709890;83;25984;-47
2024/01/17 11:10:52;;;;;;;57.50;31.85;;;;;;;4.75;54.66;99099.31;1710032;83;25665;-48
2024/01/17 11:13:22;;;;;;;57.58;32.10;;;;;;;4.58;56.12;99102.59;1710093;83;27352;-48
2024/01/17 11:15:54;;;;;;;56.08;30.75;;;;;;;4.78;56.98;99094.14;1709879;83;25631;-46
2024/01/17 11:18:24;;;;;;;58.60;32.33;;;;;;;4.73;55.37;99075.49;1709885;83;25656;-45
2024/01/17 11:20:55;;;;;;;57.35;31.85;;;;;;;4.36;54.35;99071.96;1709826;83;25618;-45
2024/01/17 11:23:41;;;;;;;61.08;32.23;;;;;;;4.04;55.60;99074.16;1709926;83;25809;-47
2024/01/17 11:26:19;;;;;;;56.42;30.62;;;;;;;4.03;56.52;99069.33;1709848;83;27942;-45